sensor_id;sensor_type;location;lat;lon;timestamp;temperature;humidity
24085;DHT22;12268;52.110;5.548;2024-03-02T01:28:09;10.80;99.90
24085;DHT22;12268;52.110;5.548;2024-03-02T01:30:34;11.00;99.90
24085;DHT22;12268;52.110;5.548;2024-03-02T01:33:00;11.20;99.90
24085;DHT22;12268;52.110;5.548;2024-03-02T01:35:27;11.10;99.90
24085;DHT22;12268;52.110;5.548;2024-03-02T01:37:53;11.10;99.90
24085;DHT22;12268;52.110;5.548;2024-03-02T01:40:19;10.90;99.90
24085;DHT22;12268;52.110;5.548;2024-03-02T01:42:45;10.90;99.90
24085;DHT22;12268;52.110;5.548;2024-03-02T01:45:11;11.10;99.90
24085;DHT22;12268;52.110;5.548;2024-03-02T01:47:37;11.30;99.90
24085;DHT22;12268;52.110;5.548;2024-03-02T01:50:03;11.10;99.90
24085;DHT22;12268;52.110;5.548;2024-03-02T01:52:29;11.00;99.90
24085;DHT22;12268;52.110;5.548;2024-03-02T01:54:55;11.00;99.90
24085;DHT22;12268;52.110;5.548;2024-03-02T01:57:20;10.90;99.90
24085;DHT22;12268;52.110;5.548;2024-03-02T01:59:46;10.80;99.90
24085;DHT22;12268;52.110;5.548;2024-03-02T02:02:16;10.70;99.90
24085;DHT22;12268;52.110;5.548;2024-03-02T02:04:42;10.50;99.90
24085;DHT22;12268;52.110;5.548;2024-03-02T02:07:08;10.60;99.90
24085;DHT22;12268;52.110;5.548;2024-03-02T02:09:33;10.50;99.90
24085;DHT22;12268;52.110;5.548;2024-03-02T02:11:59;10.70;99.90
24085;DHT22;12268;52.110;5.548;2024-03-02T02:14:25;10.80;99.90
24085;DHT22;12268;52.110;5.548;2024-03-02T02:16:50;10.70;99.90
24085;DHT22;12268;52.110;5.548;2024-03-02T02:19:17;10.60;99.90
24085;DHT22;12268;52.110;5.548;2024-03-02T02:21:43;10.50;99.90
24085;DHT22;12268;52.110;5.548;2024-03-02T02:24:09;10.50;99.90
24085;DHT22;12268;52.110;5.548;2024-03-02T02:26:34;10.50;99.90
24085;DHT22;12268;52.110;5.548;2024-03-02T02:29:00;10.30;99.90
24085;DHT22;12268;52.110;5.548;2024-03-02T02:31:26;10.20;99.90
24085;DHT22;12268;52.110;5.548;2024-03-02T02:33:51;10.20;99.90
24085;DHT22;12268;52.110;5.548;2024-03-02T02:36:17;10.20;99.90
24085;DHT22;12268;52.110;5.548;2024-03-02T02:38:45;10.10;99.90
24085;DHT22;12268;52.110;5.548;2024-03-02T02:41:12;10.00;99.90
24085;DHT22;12268;52.110;5.548;2024-03-02T02:43:38;10.10;99.90
24085;DHT22;12268;52.110;5.548;2024-03-02T02:46:05;10.10;99.90
24085;DHT22;12268;52.110;5.548;2024-03-02T02:48:30;9.90;99.90
24085;DHT22;12268;52.110;5.548;2024-03-02T02:50:56;9.90;99.90
24085;DHT22;12268;52.110;5.548;2024-03-02T02:53:22;9.80;99.90
24085;DHT22;12268;52.110;5.548;2024-03-02T02:55:47;9.90;99.90
24085;DHT22;12268;52.110;5.548;2024-03-02T02:58:13;9.80;99.90
24085;DHT22;12268;52.110;5.548;2024-03-02T03:00:40;9.70;99.90
24085;DHT22;12268;52.110;5.548;2024-03-02T03:03:05;9.90;99.90
24085;DHT22;12268;52.110;5.548;2024-03-02T03:05:31;10.00;99.90
24085;DHT22;12268;52.110;5.548;2024-03-02T03:07:57;9.80;99.90
24085;DHT22;12268;52.110;5.548;2024-03-02T03:10:22;9.70;99.90
24085;DHT22;12268;52.110;5.548;2024-03-02T03:12:49;9.60;99.90
24085;DHT22;12268;52.110;5.548;2024-03-02T03:15:15;9.50;99.90
24085;DHT22;12268;52.110;5.548;2024-03-02T03:17:42;9.50;99.90
24085;DHT22;12268;52.110;5.548;2024-03-02T03:20:08;9.50;99.90
24085;DHT22;12268;52.110;5.548;2024-03-02T03:22:39;9.60;99.90
24085;DHT22;12268;52.110;5.548;2024-03-02T03:25:05;9.70;99.90
24085;DHT22;12268;52.110;5.548;2024-03-02T03:27:33;10.00;99.90
24085;DHT22;12268;52.110;5.548;2024-03-02T03:29:59;10.10;99.90
24085;DHT22;12268;52.110;5.548;2024-03-02T03:32:24;10.20;99.90
24085;DHT22;12268;52.110;5.548;2024-03-02T03:34:50;10.30;99.90
24085;DHT22;12268;52.110;5.548;2024-03-02T03:37:16;10.40;99.90
24085;DHT22;12268;52.110;5.548;2024-03-02T03:39:42;10.40;99.90
24085;DHT22;12268;52.110;5.548;2024-03-02T03:42:07;10.40;99.90
24085;DHT22;12268;52.110;5.548;2024-03-02T03:44:33;10.30;99.90
24085;DHT22;12268;52.110;5.548;2024-03-02T03:46:59;10.20;99.90
24085;DHT22;12268;52.110;5.548;2024-03-02T03:49:26;10.00;99.90
24085;DHT22;12268;52.110;5.548;2024-03-02T03:51:51;9.90;99.90
24085;DHT22;12268;52.110;5.548;2024-03-02T03:54:17;10.00;99.90
24085;DHT22;12268;52.110;5.548;2024-03-02T03:56:43;10.10;99.90
24085;DHT22;12268;52.110;5.548;2024-03-02T03:59:08;10.10;99.90
24085;DHT22;12268;52.110;5.548;2024-03-02T04:01:34;10.10;99.90
24085;DHT22;12268;52.110;5.548;2024-03-02T04:03:59;10.20;99.90
24085;DHT22;12268;52.110;5.548;2024-03-02T04:06:27;10.00;99.90
24085;DHT22;12268;52.110;5.548;2024-03-02T04:08:53;10.00;99.90
24085;DHT22;12268;52.110;5.548;2024-03-02T04:11:18;10.00;99.90
24085;DHT22;12268;52.110;5.548;2024-03-02T04:13:44;10.00;99.90
24085;DHT22;12268;52.110;5.548;2024-03-02T04:16:09;10.00;99.90
24085;DHT22;12268;52.110;5.548;2024-03-02T04:18:35;10.10;99.90
24085;DHT22;12268;52.110;5.548;2024-03-02T04:21:00;10.20;99.90
24085;DHT22;12268;52.110;5.548;2024-03-02T04:23:26;10.10;99.90
24085;DHT22;12268;52.110;5.548;2024-03-02T04:25:52;10.10;99.90
24085;DHT22;12268;52.110;5.548;2024-03-02T04:28:18;10.00;99.90
24085;DHT22;12268;52.110;5.548;2024-03-02T04:30:44;10.00;99.90
24085;DHT22;12268;52.110;5.548;2024-03-02T04:33:09;10.00;99.90
24085;DHT22;12268;52.110;5.548;2024-03-02T04:35:36;10.00;99.90
24085;DHT22;12268;52.110;5.548;2024-03-02T04:38:02;10.00;99.90
24085;DHT22;12268;52.110;5.548;2024-03-02T04:40:27;10.00;99.90
24085;DHT22;12268;52.110;5.548;2024-03-02T04:42:53;10.00;99.90
24085;DHT22;12268;52.110;5.548;2024-03-02T04:45:19;10.00;99.90
24085;DHT22;12268;52.110;5.548;2024-03-02T04:47:45;10.00;99.90
24085;DHT22;12268;52.110;5.548;2024-03-02T04:50:10;10.00;99.90
24085;DHT22;12268;52.110;5.548;2024-03-02T04:52:36;10.00;99.90
24085;DHT22;12268;52.110;5.548;2024-03-02T04:55:02;10.00;99.90
24085;DHT22;12268;52.110;5.548;2024-03-02T04:58:00;9.90;99.90
24085;DHT22;12268;52.110;5.548;2024-03-02T05:00:26;9.90;99.90
24085;DHT22;12268;52.110;5.548;2024-03-02T05:02:51;9.90;99.90
24085;DHT22;12268;52.110;5.548;2024-03-02T05:05:17;9.90;99.90
24085;DHT22;12268;52.110;5.548;2024-03-02T05:07:43;9.90;99.90
24085;DHT22;12268;52.110;5.548;2024-03-02T05:10:09;10.20;99.90
24085;DHT22;12268;52.110;5.548;2024-03-02T05:12:35;10.20;99.90
24085;DHT22;12268;52.110;5.548;2024-03-02T05:15:14;10.20;99.90
24085;DHT22;12268;52.110;5.548;2024-03-02T05:17:40;10.20;99.90
24085;DHT22;12268;52.110;5.548;2024-03-02T05:20:07;10.20;99.90
24085;DHT22;12268;52.110;5.548;2024-03-02T05:22:36;10.20;99.90
24085;DHT22;12268;52.110;5.548;2024-03-02T05:25:03;10.20;99.90
24085;DHT22;12268;52.110;5.548;2024-03-02T05:27:29;10.30;99.90
24085;DHT22;12268;52.110;5.548;2024-03-02T05:29:54;10.30;99.90
24085;DHT22;12268;52.110;5.548;2024-03-02T05:32:20;10.40;99.90
24085;DHT22;12268;52.110;5.548;2024-03-02T05:34:46;10.30;99.90
24085;DHT22;12268;52.110;5.548;2024-03-02T05:37:11;10.30;99.90
24085;DHT22;12268;52.110;5.548;2024-03-02T05:39:37;10.30;99.90
24085;DHT22;12268;52.110;5.548;2024-03-02T05:42:03;10.40;99.90
24085;DHT22;12268;52.110;5.548;2024-03-02T05:44:29;10.30;99.90
24085;DHT22;12268;52.110;5.548;2024-03-02T05:46:55;10.40;99.90
24085;DHT22;12268;52.110;5.548;2024-03-02T05:49:21;10.60;99.90
24085;DHT22;12268;52.110;5.548;2024-03-02T05:51:46;10.60;99.90
24085;DHT22;12268;52.110;5.548;2024-03-02T05:54:12;10.60;99.90
24085;DHT22;12268;52.110;5.548;2024-03-02T05:56:38;10.60;99.90
24085;DHT22;12268;52.110;5.548;2024-03-02T05:59:03;10.60;99.90
24085;DHT22;12268;52.110;5.548;2024-03-02T06:01:45;10.60;99.90
24085;DHT22;12268;52.110;5.548;2024-03-02T06:04:16;10.50;99.90
24085;DHT22;12268;52.110;5.548;2024-03-02T06:06:42;10.60;99.90
24085;DHT22;12268;52.110;5.548;2024-03-02T06:09:08;10.50;99.90
24085;DHT22;12268;52.110;5.548;2024-03-02T06:11:38;10.50;99.90
24085;DHT22;12268;52.110;5.548;2024-03-02T06:14:05;10.50;99.90
24085;DHT22;12268;52.110;5.548;2024-03-02T06:16:30;10.40;99.90
24085;DHT22;12268;52.110;5.548;2024-03-02T06:18:56;10.20;99.90
24085;DHT22;12268;52.110;5.548;2024-03-02T06:21:25;10.20;99.90
24085;DHT22;12268;52.110;5.548;2024-03-02T06:23:51;10.20;99.90
24085;DHT22;12268;52.110;5.548;2024-03-02T06:26:18;10.00;99.90
24085;DHT22;12268;52.110;5.548;2024-03-02T06:28:44;10.10;99.90
24085;DHT22;12268;52.110;5.548;2024-03-02T06:31:10;10.20;99.90
24085;DHT22;12268;52.110;5.548;2024-03-02T06:33:35;10.10;99.90
24085;DHT22;12268;52.110;5.548;2024-03-02T06:36:01;10.10;99.90
24085;DHT22;12268;52.110;5.548;2024-03-02T06:38:27;10.20;99.90
24085;DHT22;12268;52.110;5.548;2024-03-02T06:40:53;10.20;99.90
24085;DHT22;12268;52.110;5.548;2024-03-02T06:43:19;10.10;99.90
24085;DHT22;12268;52.110;5.548;2024-03-02T06:45:49;10.10;99.90
24085;DHT22;12268;52.110;5.548;2024-03-02T06:48:14;10.00;99.90
24085;DHT22;12268;52.110;5.548;2024-03-02T06:50:44;9.90;99.90
24085;DHT22;12268;52.110;5.548;2024-03-02T06:53:09;10.00;99.90
24085;DHT22;12268;52.110;5.548;2024-03-02T06:55:35;10.20;99.90
24085;DHT22;12268;52.110;5.548;2024-03-02T06:58:00;10.20;99.90
24085;DHT22;12268;52.110;5.548;2024-03-02T07:00:26;10.00;99.90
24085;DHT22;12268;52.110;5.548;2024-03-02T07:02:51;9.90;99.90
24085;DHT22;12268;52.110;5.548;2024-03-02T07:05:17;9.80;99.90
24085;DHT22;12268;52.110;5.548;2024-03-02T07:07:43;9.80;99.90
24085;DHT22;12268;52.110;5.548;2024-03-02T07:10:08;9.70;99.90
24085;DHT22;12268;52.110;5.548;2024-03-02T07:12:34;9.90;99.90
24085;DHT22;12268;52.110;5.548;2024-03-02T07:15:00;10.00;99.90
24085;DHT22;12268;52.110;5.548;2024-03-02T07:17:28;10.10;99.90
24085;DHT22;12268;52.110;5.548;2024-03-02T07:19:54;10.40;99.90
24085;DHT22;12268;52.110;5.548;2024-03-02T07:22:19;10.50;99.90
24085;DHT22;12268;52.110;5.548;2024-03-02T07:24:45;10.50;99.90
24085;DHT22;12268;52.110;5.548;2024-03-02T07:27:12;10.70;99.90
24085;DHT22;12268;52.110;5.548;2024-03-02T07:29:38;10.80;99.90
24085;DHT22;12268;52.110;5.548;2024-03-02T07:32:05;11.00;99.90
24085;DHT22;12268;52.110;5.548;2024-03-02T07:34:30;11.30;99.90
24085;DHT22;12268;52.110;5.548;2024-03-02T07:36:56;11.40;99.90
24085;DHT22;12268;52.110;5.548;2024-03-02T07:39:22;11.50;99.90
24085;DHT22;12268;52.110;5.548;2024-03-02T07:41:48;11.60;99.90
24085;DHT22;12268;52.110;5.548;2024-03-02T07:44:14;12.10;99.90
24085;DHT22;12268;52.110;5.548;2024-03-02T07:46:43;12.30;99.90
24085;DHT22;12268;52.110;5.548;2024-03-02T10:19:22;18.00;99.90
24085;DHT22;12268;52.110;5.548;2024-03-02T10:21:54;18.70;99.90
24085;DHT22;12268;52.110;5.548;2024-03-02T10:24:22;18.40;99.90
24085;DHT22;12268;52.110;5.548;2024-03-02T10:26:48;18.10;99.90
24085;DHT22;12268;52.110;5.548;2024-03-02T10:29:14;18.50;99.90
24085;DHT22;12268;52.110;5.548;2024-03-02T10:31:42;19.50;99.90
24085;DHT22;12268;52.110;5.548;2024-03-02T10:34:09;18.90;99.90
24085;DHT22;12268;52.110;5.548;2024-03-02T10:36:36;18.10;99.90
24085;DHT22;12268;52.110;5.548;2024-03-02T10:39:07;18.20;99.90
24085;DHT22;12268;52.110;5.548;2024-03-02T10:41:35;19.10;99.90
24085;DHT22;12268;52.110;5.548;2024-03-02T10:44:08;19.30;99.90
24085;DHT22;12268;52.110;5.548;2024-03-02T10:46:36;18.70;99.90
24085;DHT22;12268;52.110;5.548;2024-03-02T10:49:03;18.80;99.90
24085;DHT22;12268;52.110;5.548;2024-03-02T10:51:31;18.90;99.90
24085;DHT22;12268;52.110;5.548;2024-03-02T10:54:00;19.70;99.90
24085;DHT22;12268;52.110;5.548;2024-03-02T10:56:38;20.30;99.90
24085;DHT22;12268;52.110;5.548;2024-03-02T11:01:39;20.40;99.90
24085;DHT22;12268;52.110;5.548;2024-03-02T11:04:08;21.00;99.90
24085;DHT22;12268;52.110;5.548;2024-03-02T11:06:35;21.00;99.90
24085;DHT22;12268;52.110;5.548;2024-03-02T11:09:06;21.00;99.90
24085;DHT22;12268;52.110;5.548;2024-03-02T11:11:37;21.30;99.90
24085;DHT22;12268;52.110;5.548;2024-03-02T11:14:04;21.00;99.90
24085;DHT22;12268;52.110;5.548;2024-03-02T11:16:38;21.30;99.90
24085;DHT22;12268;52.110;5.548;2024-03-02T11:19:06;21.40;99.90
24085;DHT22;12268;52.110;5.548;2024-03-02T11:21:33;21.40;99.90
24085;DHT22;12268;52.110;5.548;2024-03-02T11:23:59;21.00;99.90
24085;DHT22;12268;52.110;5.548;2024-03-02T11:26:25;21.70;99.90
24085;DHT22;12268;52.110;5.548;2024-03-02T11:28:51;22.40;99.90
24085;DHT22;12268;52.110;5.548;2024-03-02T11:31:17;22.60;99.90
24085;DHT22;12268;52.110;5.548;2024-03-02T11:33:42;22.00;99.90
24085;DHT22;12268;52.110;5.548;2024-03-02T11:36:09;21.50;99.90
24085;DHT22;12268;52.110;5.548;2024-03-02T11:38:35;21.20;99.90
24085;DHT22;12268;52.110;5.548;2024-03-02T11:41:10;21.30;99.90
24085;DHT22;12268;52.110;5.548;2024-03-02T11:43:42;21.40;99.90
24085;DHT22;12268;52.110;5.548;2024-03-02T11:46:10;21.10;99.90
24085;DHT22;12268;52.110;5.548;2024-03-02T11:48:37;21.60;99.90
24085;DHT22;12268;52.110;5.548;2024-03-02T11:51:04;21.40;99.90
24085;DHT22;12268;52.110;5.548;2024-03-02T11:53:30;22.00;99.90
24085;DHT22;12268;52.110;5.548;2024-03-02T11:55:58;22.70;99.90
24085;DHT22;12268;52.110;5.548;2024-03-02T11:58:24;22.70;99.90
24085;DHT22;12268;52.110;5.548;2024-03-02T12:00:52;23.50;99.90
24085;DHT22;12268;52.110;5.548;2024-03-02T12:03:18;23.70;99.30
24085;DHT22;12268;52.110;5.548;2024-03-02T12:05:49;23.50;99.00
24085;DHT22;12268;52.110;5.548;2024-03-02T12:08:15;23.50;97.70
24085;DHT22;12268;52.110;5.548;2024-03-02T12:10:40;23.10;98.60
24085;DHT22;12268;52.110;5.548;2024-03-02T12:13:07;23.20;97.70
24085;DHT22;12268;52.110;5.548;2024-03-02T12:15:38;23.30;98.60
24085;DHT22;12268;52.110;5.548;2024-03-02T12:18:04;23.80;98.10
24085;DHT22;12268;52.110;5.548;2024-03-02T12:20:31;23.60;97.00
24085;DHT22;12268;52.110;5.548;2024-03-02T12:23:02;23.30;97.50
24085;DHT22;12268;52.110;5.548;2024-03-02T12:25:30;23.10;96.70
24085;DHT22;12268;52.110;5.548;2024-03-02T12:27:58;23.50;97.10
24085;DHT22;12268;52.110;5.548;2024-03-02T12:30:27;22.80;95.50
24085;DHT22;12268;52.110;5.548;2024-03-02T12:32:54;22.60;95.20
24085;DHT22;12268;52.110;5.548;2024-03-02T12:35:20;22.80;96.00
24085;DHT22;12268;52.110;5.548;2024-03-02T12:37:50;22.50;96.20
24085;DHT22;12268;52.110;5.548;2024-03-02T12:40:17;22.00;96.50
24085;DHT22;12268;52.110;5.548;2024-03-02T12:42:44;22.00;97.40
24085;DHT22;12268;52.110;5.548;2024-03-02T12:45:11;21.80;97.70
24085;DHT22;12268;52.110;5.548;2024-03-02T12:47:38;22.40;98.80
24085;DHT22;12268;52.110;5.548;2024-03-02T12:50:04;22.80;96.90
24085;DHT22;12268;52.110;5.548;2024-03-02T12:52:31;21.70;97.10
24085;DHT22;12268;52.110;5.548;2024-03-02T12:55:00;21.80;97.50
24085;DHT22;12268;52.110;5.548;2024-03-02T12:57:28;21.70;96.50
24085;DHT22;12268;52.110;5.548;2024-03-02T13:00:03;21.50;98.20
24085;DHT22;12268;52.110;5.548;2024-03-02T13:02:34;21.30;99.00
24085;DHT22;12268;52.110;5.548;2024-03-02T13:05:00;21.30;97.20
24085;DHT22;12268;52.110;5.548;2024-03-02T13:07:26;22.00;97.90
24085;DHT22;12268;52.110;5.548;2024-03-02T13:09:53;22.00;97.60
24085;DHT22;12268;52.110;5.548;2024-03-02T13:12:21;21.20;97.40
24085;DHT22;12268;52.110;5.548;2024-03-02T13:14:53;20.60;97.70
24085;DHT22;12268;52.110;5.548;2024-03-02T13:17:19;20.00;99.90
24085;DHT22;12268;52.110;5.548;2024-03-02T13:19:55;19.60;99.50
24085;DHT22;12268;52.110;5.548;2024-03-02T13:22:21;18.90;99.90
24085;DHT22;12268;52.110;5.548;2024-03-02T13:24:47;18.70;99.90
24085;DHT22;12268;52.110;5.548;2024-03-02T13:27:13;18.70;99.90
24085;DHT22;12268;52.110;5.548;2024-03-02T13:29:39;18.10;99.90
24085;DHT22;12268;52.110;5.548;2024-03-02T13:32:05;17.80;99.90
24085;DHT22;12268;52.110;5.548;2024-03-02T13:34:30;17.70;99.90
24085;DHT22;12268;52.110;5.548;2024-03-02T13:36:56;17.60;99.90
24085;DHT22;12268;52.110;5.548;2024-03-02T13:39:22;17.50;99.90
24085;DHT22;12268;52.110;5.548;2024-03-02T13:41:48;17.30;99.90
24085;DHT22;12268;52.110;5.548;2024-03-02T13:44:21;17.30;99.90
24085;DHT22;12268;52.110;5.548;2024-03-02T13:46:47;17.20;99.90
24085;DHT22;12268;52.110;5.548;2024-03-02T13:49:13;17.20;99.90
24085;DHT22;12268;52.110;5.548;2024-03-02T13:51:39;16.80;99.90
24085;DHT22;12268;52.110;5.548;2024-03-02T13:54:05;16.80;99.90
24085;DHT22;12268;52.110;5.548;2024-03-02T13:56:31;17.00;99.90
24085;DHT22;12268;52.110;5.548;2024-03-02T13:58:58;16.90;99.90
24085;DHT22;12268;52.110;5.548;2024-03-02T14:01:24;16.90;99.90
24085;DHT22;12268;52.110;5.548;2024-03-02T14:03:50;16.90;99.90
24085;DHT22;12268;52.110;5.548;2024-03-02T14:06:16;16.90;99.90
24085;DHT22;12268;52.110;5.548;2024-03-02T14:08:41;17.10;99.90
24085;DHT22;12268;52.110;5.548;2024-03-02T14:11:10;17.20;99.90
24085;DHT22;12268;52.110;5.548;2024-03-02T14:13:41;17.10;99.90
24085;DHT22;12268;52.110;5.548;2024-03-02T14:16:06;17.10;99.90
24085;DHT22;12268;52.110;5.548;2024-03-02T14:18:32;16.80;99.90
24085;DHT22;12268;52.110;5.548;2024-03-02T14:20:57;16.90;99.90
24085;DHT22;12268;52.110;5.548;2024-03-02T14:23:23;17.00;99.90
24085;DHT22;12268;52.110;5.548;2024-03-02T14:25:49;17.10;99.90
24085;DHT22;12268;52.110;5.548;2024-03-02T14:28:14;17.30;99.90
24085;DHT22;12268;52.110;5.548;2024-03-02T14:30:41;16.90;99.90
24085;DHT22;12268;52.110;5.548;2024-03-02T14:33:07;16.50;99.90
24085;DHT22;12268;52.110;5.548;2024-03-02T14:35:33;16.00;99.90
24085;DHT22;12268;52.110;5.548;2024-03-02T14:37:59;16.00;99.90
24085;DHT22;12268;52.110;5.548;2024-03-02T14:40:24;16.00;99.90
24085;DHT22;12268;52.110;5.548;2024-03-02T14:42:52;16.10;99.90
24085;DHT22;12268;52.110;5.548;2024-03-02T14:45:18;15.80;99.90
24085;DHT22;12268;52.110;5.548;2024-03-02T14:47:43;15.90;99.90
24085;DHT22;12268;52.110;5.548;2024-03-02T14:50:09;16.20;99.90
24085;DHT22;12268;52.110;5.548;2024-03-02T14:52:35;16.20;99.90
24085;DHT22;12268;52.110;5.548;2024-03-02T14:55:01;16.50;99.90
24085;DHT22;12268;52.110;5.548;2024-03-02T14:57:30;16.70;99.90
24085;DHT22;12268;52.110;5.548;2024-03-02T14:59:56;16.80;99.90
24085;DHT22;12268;52.110;5.548;2024-03-02T15:02:21;16.80;99.90
24085;DHT22;12268;52.110;5.548;2024-03-02T15:04:47;16.30;99.90
24085;DHT22;12268;52.110;5.548;2024-03-02T15:07:14;15.80;99.90
24085;DHT22;12268;52.110;5.548;2024-03-02T15:09:39;15.90;99.90
24085;DHT22;12268;52.110;5.548;2024-03-02T15:12:06;16.00;99.90
24085;DHT22;12268;52.110;5.548;2024-03-02T15:14:34;16.00;99.90
24085;DHT22;12268;52.110;5.548;2024-03-02T15:17:00;16.10;99.90
24085;DHT22;12268;52.110;5.548;2024-03-02T15:19:26;16.30;99.90
24085;DHT22;12268;52.110;5.548;2024-03-02T15:21:51;16.40;99.90
24085;DHT22;12268;52.110;5.548;2024-03-02T15:24:17;16.30;99.90
24085;DHT22;12268;52.110;5.548;2024-03-02T15:26:42;16.20;99.90
24085;DHT22;12268;52.110;5.548;2024-03-02T15:29:08;16.20;99.90
24085;DHT22;12268;52.110;5.548;2024-03-02T15:31:34;16.10;99.90
24085;DHT22;12268;52.110;5.548;2024-03-02T15:33:59;15.90;99.90
24085;DHT22;12268;52.110;5.548;2024-03-02T15:36:25;15.80;99.90
24085;DHT22;12268;52.110;5.548;2024-03-02T15:38:50;16.00;99.90
24085;DHT22;12268;52.110;5.548;2024-03-02T15:41:16;16.20;99.90
24085;DHT22;12268;52.110;5.548;2024-03-02T15:43:41;16.00;99.90
24085;DHT22;12268;52.110;5.548;2024-03-02T15:46:08;16.00;99.90
24085;DHT22;12268;52.110;5.548;2024-03-02T15:48:34;16.00;99.90
24085;DHT22;12268;52.110;5.548;2024-03-02T15:51:00;16.20;99.90
24085;DHT22;12268;52.110;5.548;2024-03-02T15:53:25;16.30;99.90
24085;DHT22;12268;52.110;5.548;2024-03-02T15:55:51;16.30;99.90
24085;DHT22;12268;52.110;5.548;2024-03-02T15:58:17;16.10;99.90
24085;DHT22;12268;52.110;5.548;2024-03-02T16:00:43;16.20;99.90
24085;DHT22;12268;52.110;5.548;2024-03-02T16:03:09;16.10;99.90
24085;DHT22;12268;52.110;5.548;2024-03-02T16:05:34;16.20;99.90
24085;DHT22;12268;52.110;5.548;2024-03-02T16:08:00;16.30;99.90
24085;DHT22;12268;52.110;5.548;2024-03-02T16:10:26;16.00;99.90
24085;DHT22;12268;52.110;5.548;2024-03-02T16:12:52;16.00;99.90
24085;DHT22;12268;52.110;5.548;2024-03-02T16:15:18;15.90;99.90
24085;DHT22;12268;52.110;5.548;2024-03-02T16:17:44;15.90;99.90
24085;DHT22;12268;52.110;5.548;2024-03-02T16:20:10;15.90;99.90
24085;DHT22;12268;52.110;5.548;2024-03-02T16:22:37;15.70;99.90
24085;DHT22;12268;52.110;5.548;2024-03-02T16:25:02;15.60;99.90
24085;DHT22;12268;52.110;5.548;2024-03-02T16:27:28;15.50;99.90
24085;DHT22;12268;52.110;5.548;2024-03-02T16:29:54;15.50;99.90
24085;DHT22;12268;52.110;5.548;2024-03-02T16:32:24;15.50;99.90
24085;DHT22;12268;52.110;5.548;2024-03-02T16:34:49;15.40;99.90
24085;DHT22;12268;52.110;5.548;2024-03-02T16:37:16;15.30;99.90
24085;DHT22;12268;52.110;5.548;2024-03-02T16:39:42;15.50;99.90
24085;DHT22;12268;52.110;5.548;2024-03-02T16:42:08;15.60;99.90
24085;DHT22;12268;52.110;5.548;2024-03-02T16:44:34;15.70;99.90
24085;DHT22;12268;52.110;5.548;2024-03-02T16:46:59;15.70;99.90
24085;DHT22;12268;52.110;5.548;2024-03-02T16:49:25;15.60;99.90
24085;DHT22;12268;52.110;5.548;2024-03-02T16:51:50;15.60;99.90
24085;DHT22;12268;52.110;5.548;2024-03-02T16:54:16;15.60;99.90
24085;DHT22;12268;52.110;5.548;2024-03-02T16:56:43;15.50;99.90
24085;DHT22;12268;52.110;5.548;2024-03-02T16:59:09;15.10;99.90
24085;DHT22;12268;52.110;5.548;2024-03-02T17:01:35;15.20;99.90
24085;DHT22;12268;52.110;5.548;2024-03-02T17:04:01;15.20;99.90
24085;DHT22;12268;52.110;5.548;2024-03-02T17:06:29;15.10;99.90
24085;DHT22;12268;52.110;5.548;2024-03-02T17:08:56;15.20;99.90
24085;DHT22;12268;52.110;5.548;2024-03-02T17:11:21;15.30;99.90
24085;DHT22;12268;52.110;5.548;2024-03-02T17:13:47;15.40;99.90
24085;DHT22;12268;52.110;5.548;2024-03-02T17:16:13;15.40;99.90
24085;DHT22;12268;52.110;5.548;2024-03-02T17:18:39;15.30;99.90
24085;DHT22;12268;52.110;5.548;2024-03-02T17:21:05;15.00;99.90
24085;DHT22;12268;52.110;5.548;2024-03-02T17:23:30;14.80;99.90
24085;DHT22;12268;52.110;5.548;2024-03-02T17:25:57;14.80;99.90
24085;DHT22;12268;52.110;5.548;2024-03-02T17:28:24;14.80;99.90
24085;DHT22;12268;52.110;5.548;2024-03-02T17:30:53;14.70;99.90
24085;DHT22;12268;52.110;5.548;2024-03-02T17:33:19;14.80;99.90
24085;DHT22;12268;52.110;5.548;2024-03-02T17:35:44;14.80;99.90
24085;DHT22;12268;52.110;5.548;2024-03-02T17:38:13;14.80;99.90
24085;DHT22;12268;52.110;5.548;2024-03-02T17:40:39;14.80;99.90
24085;DHT22;12268;52.110;5.548;2024-03-02T17:43:04;14.80;99.90
24085;DHT22;12268;52.110;5.548;2024-03-02T17:45:30;14.90;99.90
24085;DHT22;12268;52.110;5.548;2024-03-02T17:47:56;14.70;99.90
24085;DHT22;12268;52.110;5.548;2024-03-02T17:50:21;14.70;99.90
24085;DHT22;12268;52.110;5.548;2024-03-02T17:52:47;14.50;99.90
24085;DHT22;12268;52.110;5.548;2024-03-02T17:55:13;14.70;99.90
24085;DHT22;12268;52.110;5.548;2024-03-02T17:57:39;14.80;99.90
24085;DHT22;12268;52.110;5.548;2024-03-02T18:00:05;14.80;99.90
24085;DHT22;12268;52.110;5.548;2024-03-02T18:02:30;14.60;99.90
24085;DHT22;12268;52.110;5.548;2024-03-02T18:04:59;14.60;99.90
24085;DHT22;12268;52.110;5.548;2024-03-02T18:07:24;14.50;99.90
24085;DHT22;12268;52.110;5.548;2024-03-02T18:09:50;14.80;99.90
24085;DHT22;12268;52.110;5.548;2024-03-02T18:12:16;15.00;99.90
24085;DHT22;12268;52.110;5.548;2024-03-02T18:14:41;15.20;99.90
24085;DHT22;12268;52.110;5.548;2024-03-02T18:17:07;15.30;99.90
24085;DHT22;12268;52.110;5.548;2024-03-02T18:19:32;15.40;99.90
24085;DHT22;12268;52.110;5.548;2024-03-02T18:21:58;15.50;99.90
24085;DHT22;12268;52.110;5.548;2024-03-02T18:24:23;15.50;99.90
24085;DHT22;12268;52.110;5.548;2024-03-02T18:26:53;15.50;99.90
24085;DHT22;12268;52.110;5.548;2024-03-02T18:29:19;15.30;99.90
24085;DHT22;12268;52.110;5.548;2024-03-02T18:31:46;15.50;99.90
24085;DHT22;12268;52.110;5.548;2024-03-02T18:34:12;15.40;99.90
24085;DHT22;12268;52.110;5.548;2024-03-02T18:36:37;15.20;99.90
24085;DHT22;12268;52.110;5.548;2024-03-02T18:39:03;15.10;99.90
24085;DHT22;12268;52.110;5.548;2024-03-02T18:41:28;15.20;99.90
24085;DHT22;12268;52.110;5.548;2024-03-02T18:43:54;15.30;99.90
24085;DHT22;12268;52.110;5.548;2024-03-02T18:46:20;15.40;99.90
24085;DHT22;12268;52.110;5.548;2024-03-02T18:48:45;15.50;99.90
24085;DHT22;12268;52.110;5.548;2024-03-02T18:51:11;15.20;99.90
24085;DHT22;12268;52.110;5.548;2024-03-02T18:53:36;15.30;99.90
24085;DHT22;12268;52.110;5.548;2024-03-02T18:56:03;15.40;99.90
24085;DHT22;12268;52.110;5.548;2024-03-02T18:58:31;15.50;99.90
24085;DHT22;12268;52.110;5.548;2024-03-02T19:00:57;15.60;99.90
24085;DHT22;12268;52.110;5.548;2024-03-02T19:03:23;15.60;99.90
24085;DHT22;12268;52.110;5.548;2024-03-02T19:05:49;15.60;99.90
24085;DHT22;12268;52.110;5.548;2024-03-02T19:08:14;15.50;99.90
24085;DHT22;12268;52.110;5.548;2024-03-02T19:10:43;15.60;99.90
24085;DHT22;12268;52.110;5.548;2024-03-02T19:13:09;15.50;99.90
24085;DHT22;12268;52.110;5.548;2024-03-02T19:15:35;15.40;99.90
24085;DHT22;12268;52.110;5.548;2024-03-02T19:18:00;15.40;99.90
24085;DHT22;12268;52.110;5.548;2024-03-02T19:20:26;15.40;99.90
24085;DHT22;12268;52.110;5.548;2024-03-02T19:22:52;15.60;99.90
24085;DHT22;12268;52.110;5.548;2024-03-02T19:25:17;15.70;99.90
24085;DHT22;12268;52.110;5.548;2024-03-02T19:27:45;15.80;99.90